Time;durP1;ratioP1;P1;durP2;ratioP2;P2;SDS_P1;SDS_P2;PMS_P1;PMS_P2;Temp;Humidity;BMP_temperature;BMP_pressure;BME280_temperature;BME280_humidity;BME280_pressure;Samples;Min_cycle;Max_cycle;Signal;HPM_P1;HPM_P2
2023/07/19 00:02:04;;;;;;;4.65;2.10;;;;;;;;;;5072885;28;20043;-77
2023/07/19 00:04:31;;;;;;;5.07;2.20;;;;;;;;;;5073322;28;20126;-80
2023/07/19 00:06:58;;;;;;;6.90;2.33;;;;;;;;;;5062818;28;20060;-78
2023/07/19 00:09:24;;;;;;;3.47;1.70;;;;;;;;;;5063331;28;20112;-79
2023/07/19 00:11:51;;;;;;;3.75;1.95;;;;;;;;;;5062033;28;20118;-79
2023/07/19 00:14:18;;;;;;;10.20;2.03;;;;;;;;;;5062814;28;20048;-79
2023/07/19 00:16:45;;;;;;;5.45;2.05;;;;;;;;;;5060860;28;20099;-79
2023/07/19 00:19:11;;;;;;;3.78;2.10;;;;;;;;;;5060692;28;20053;-79
2023/07/19 00:21:46;;;;;;;4.57;2.22;;;;;;;;;;5064888;28;20102;-80
2023/07/19 00:24:13;;;;;;;4.57;1.75;;;;;;;;;;5060309;28;20348;-78
2023/07/19 00:26:40;;;;;;;2.47;1.65;;;;;;;;;;5054944;28;20554;-79
2023/07/19 00:29:07;;;;;;;5.57;2.20;;;;;;;;;;5059729;28;20045;-79
2023/07/19 00:31:33;;;;;;;3.97;1.70;;;;;;;;;;5054916;28;20139;-79
2023/07/19 00:34:01;;;;;;;3.38;1.90;;;;;;;;;;5050783;28;20068;-79
2023/07/19 00:36:28;;;;;;;4.63;1.65;;;;;;;;;;5054086;28;20040;-78
2023/07/19 00:38:54;;;;;;;3.50;1.50;;;;;;;;;;5073060;28;20048;-77
2023/07/19 00:41:21;;;;;;;4.75;1.70;;;;;;;;;;5075311;28;20049;-78
2023/07/19 00:43:48;;;;;;;4.78;1.85;;;;;;;;;;5075624;28;20066;-80
2023/07/19 00:46:15;;;;;;;6.32;1.75;;;;;;;;;;5072999;28;20047;-78
2023/07/19 00:48:41;;;;;;;3.63;1.92;;;;;;;;;;5075957;28;20052;-79
2023/07/19 00:51:11;;;;;;;2.35;1.38;;;;;;;;;;5078481;28;20048;-81
2023/07/19 00:53:42;;;;;;;3.15;1.75;;;;;;;;;;5079332;28;20052;-80
2023/07/19 00:56:09;;;;;;;4.55;1.92;;;;;;;;;;5077565;28;20049;-80
2023/07/19 00:58:36;;;;;;;7.63;2.10;;;;;;;;;;5080965;28;20041;-79
2023/07/19 01:01:05;;;;;;;5.55;2.20;;;;;;;;;;5075803;28;20510;-78
2023/07/19 01:03:32;;;;;;;4.18;1.70;;;;;;;;;;5075733;28;20048;-77
2023/07/19 01:05:59;;;;;;;4.45;1.70;;;;;;;;;;5058291;28;20600;-77
2023/07/19 01:08:26;;;;;;;3.05;1.65;;;;;;;;;;5075313;28;20044;-77
2023/07/19 01:10:53;;;;;;;5.68;1.70;;;;;;;;;;5074476;28;20098;-78
2023/07/19 01:13:20;;;;;;;2.92;1.58;;;;;;;;;;5077379;28;20044;-79
2023/07/19 01:15:47;;;;;;;5.85;2.03;;;;;;;;;;5060145;28;20044;-76
2023/07/19 01:18:15;;;;;;;3.65;1.90;;;;;;;;;;5079402;28;20251;-80
2023/07/19 01:20:42;;;;;;;2.90;1.90;;;;;;;;;;5078682;28;20036;-80
2023/07/19 01:23:08;;;;;;;5.97;2.45;;;;;;;;;;5077943;28;20501;-80
2023/07/19 01:25:35;;;;;;;5.85;1.85;;;;;;;;;;5077404;28;20075;-79
2023/07/19 01:28:02;;;;;;;3.58;1.77;;;;;;;;;;5058751;28;20115;-77
2023/07/19 01:30:29;;;;;;;4.63;1.90;;;;;;;;;;5076650;28;20048;-78
2023/07/19 01:32:56;;;;;;;3.55;1.70;;;;;;;;;;5075786;28;20048;-77
2023/07/19 01:35:23;;;;;;;4.80;2.25;;;;;;;;;;5077415;28;20304;-79
2023/07/19 01:37:49;;;;;;;4.63;1.85;;;;;;;;;;5074833;28;20037;-77
2023/07/19 01:40:16;;;;;;;4.82;2.20;;;;;;;;;;5057970;28;20099;-80
2023/07/19 01:42:42;;;;;;;4.35;2.05;;;;;;;;;;5060898;28;20040;-79
2023/07/19 01:45:09;;;;;;;3.85;1.90;;;;;;;;;;5058948;28;20045;-80
2023/07/19 01:47:36;;;;;;;3.00;1.42;;;;;;;;;;5057327;28;20040;-80
2023/07/19 01:50:03;;;;;;;3.40;1.75;;;;;;;;;;5056447;28;20048;-79
2023/07/19 01:52:30;;;;;;;3.97;1.80;;;;;;;;;;5056346;28;20171;-80
2023/07/19 01:54:56;;;;;;;2.75;1.55;;;;;;;;;;5055083;28;20120;-79
2023/07/19 01:57:23;;;;;;;4.68;2.20;;;;;;;;;;5056387;28;20127;-78
2023/07/19 01:59:50;;;;;;;3.38;1.67;;;;;;;;;;5055569;28;20040;-78
2023/07/19 02:02:17;;;;;;;2.72;1.63;;;;;;;;;;5054164;28;20112;-77
2023/07/19 02:04:46;;;;;;;4.18;1.92;;;;;;;;;;5060679;28;20410;-79
2023/07/19 02:07:13;;;;;;;3.47;1.90;;;;;;;;;;5057487;28;20091;-78
2023/07/19 02:09:49;;;;;;;6.05;1.77;;;;;;;;;;5048023;28;20040;-78
2023/07/19 02:12:16;;;;;;;2.95;1.60;;;;;;;;;;5047638;28;20094;-78
2023/07/19 02:14:42;;;;;;;3.13;1.55;;;;;;;;;;5047298;28;20063;-79
2023/07/19 02:17:10;;;;;;;4.15;1.92;;;;;;;;;;5048640;28;20051;-79
2023/07/19 02:19:37;;;;;;;3.92;1.80;;;;;;;;;;5048541;28;20057;-78
2023/07/19 02:22:04;;;;;;;4.10;1.80;;;;;;;;;;5051450;28;20063;-78
2023/07/19 02:24:31;;;;;;;3.30;1.67;;;;;;;;;;5048301;28;20110;-79
2023/07/19 02:26:58;;;;;;;5.30;1.90;;;;;;;;;;5051112;28;20471;-78
2023/07/19 02:29:25;;;;;;;3.55;1.80;;;;;;;;;;5049679;28;20048;-78
2023/07/19 02:31:55;;;;;;;3.58;2.00;;;;;;;;;;5052218;28;20060;-78
2023/07/19 02:34:21;;;;;;;3.10;1.50;;;;;;;;;;5052784;28;20041;-79
2023/07/19 02:36:49;;;;;;;4.32;1.92;;;;;;;;;;5033728;28;20041;-78
2023/07/19 02:39:21;;;;;;;3.95;2.00;;;;;;;;;;5048246;28;20589;-79
2023/07/19 02:41:48;;;;;;;3.45;1.83;;;;;;;;;;5069536;28;20056;-78
2023/07/19 02:44:15;;;;;;;4.68;1.98;;;;;;;;;;5077359;28;20063;-79
2023/07/19 02:46:46;;;;;;;5.85;1.70;;;;;;;;;;5073178;28;20130;-78
2023/07/19 02:49:13;;;;;;;3.30;1.48;;;;;;;;;;5073071;28;20052;-79
2023/07/19 02:51:39;;;;;;;4.28;2.05;;;;;;;;;;5075011;28;20056;-78
2023/07/19 02:54:06;;;;;;;4.70;2.03;;;;;;;;;;5072886;28;20074;-79
2023/07/19 02:56:33;;;;;;;3.53;1.60;;;;;;;;;;5074146;28;20127;-78
2023/07/19 02:58:59;;;;;;;2.20;1.48;;;;;;;;;;5060275;28;20298;-79
2023/07/19 03:01:26;;;;;;;3.72;2.00;;;;;;;;;;5078760;28;20059;-79
2023/07/19 03:03:53;;;;;;;5.65;2.22;;;;;;;;;;5079631;28;20049;-79
2023/07/19 03:06:19;;;;;;;4.93;1.73;;;;;;;;;;5079936;28;20131;-79
2023/07/19 03:08:46;;;;;;;4.38;1.80;;;;;;;;;;5078680;28;22163;-80
2023/07/19 03:11:12;;;;;;;4.45;1.77;;;;;;;;;;5061570;28;20461;-77
2023/07/19 03:13:39;;;;;;;6.22;1.85;;;;;;;;;;5063007;28;20051;-78
2023/07/19 03:16:06;;;;;;;4.43;1.90;;;;;;;;;;5079272;28;20041;-79
2023/07/19 03:18:32;;;;;;;3.92;2.10;;;;;;;;;;5079416;28;20040;-78
2023/07/19 03:21:00;;;;;;;8.57;1.90;;;;;;;;;;5081387;28;20044;-77
2023/07/19 03:23:30;;;;;;;10.20;2.15;;;;;;;;;;5080752;28;20115;-79
2023/07/19 03:25:58;;;;;;;6.68;2.33;;;;;;;;;;5082687;28;20040;-78
2023/07/19 03:28:25;;;;;;;5.18;1.88;;;;;;;;;;5082865;28;20056;-78
2023/07/19 03:30:54;;;;;;;3.50;2.00;;;;;;;;;;5085151;28;20051;-80
2023/07/19 03:33:22;;;;;;;4.93;2.08;;;;;;;;;;5083420;28;20041;-79
2023/07/19 03:35:50;;;;;;;4.88;1.98;;;;;;;;;;5083190;28;20083;-78
2023/07/19 03:38:20;;;;;;;7.68;1.98;;;;;;;;;;5086123;28;20055;-79
2023/07/19 03:40:48;;;;;;;5.18;2.05;;;;;;;;;;5071818;28;20127;-78
2023/07/19 03:43:15;;;;;;;4.13;2.03;;;;;;;;;;5070975;28;20044;-78
2023/07/19 03:45:42;;;;;;;6.82;2.25;;;;;;;;;;5077896;28;20048;-77
2023/07/19 03:48:09;;;;;;;5.93;2.03;;;;;;;;;;5076171;28;20331;-78
2023/07/19 03:50:36;;;;;;;6.82;2.47;;;;;;;;;;5073102;28;20078;-79
2023/07/19 03:53:04;;;;;;;3.95;1.90;;;;;;;;;;5074890;28;20526;-80
2023/07/19 03:55:32;;;;;;;3.15;1.55;;;;;;;;;;5075647;28;20243;-79
2023/07/19 03:57:59;;;;;;;3.55;1.85;;;;;;;;;;5075724;28;20529;-79
2023/07/19 04:00:27;;;;;;;5.43;2.05;;;;;;;;;;5074556;28;20079;-79
2023/07/19 04:02:56;;;;;;;5.63;2.10;;;;;;;;;;5075054;28;20064;-79
2023/07/19 04:05:22;;;;;;;5.43;2.10;;;;;;;;;;5075644;28;20528;-80
2023/07/19 04:07:49;;;;;;;5.05;2.20;;;;;;;;;;5078212;28;20494;-80
2023/07/19 04:10:16;;;;;;;3.63;2.03;;;;;;;;;;5078591;28;20040;-79
2023/07/19 04:12:43;;;;;;;6.22;2.13;;;;;;;;;;5081198;28;20055;-80
2023/07/19 04:15:10;;;;;;;4.63;2.20;;;;;;;;;;5081411;28;20041;-80
2023/07/19 04:17:37;;;;;;;5.10;2.30;;;;;;;;;;5080658;28;20059;-79
2023/07/19 04:20:06;;;;;;;4.78;2.10;;;;;;;;;;5080808;28;20052;-80
2023/07/19 04:22:33;;;;;;;5.57;2.53;;;;;;;;;;5084040;28;20068;-79
2023/07/19 04:25:02;;;;;;;3.42;2.03;;;;;;;;;;5081176;28;20091;-79
2023/07/19 04:27:31;;;;;;;4.47;2.20;;;;;;;;;;5079749;28;20120;-80
2023/07/19 04:29:58;;;;;;;3.97;2.22;;;;;;;;;;5081375;28;20047;-80
2023/07/19 04:32:26;;;;;;;7.05;2.45;;;;;;;;;;5079883;28;20048;-79
2023/07/19 04:34:53;;;;;;;6.03;2.40;;;;;;;;;;5081005;28;20056;-78
2023/07/19 04:37:20;;;;;;;4.95;2.40;;;;;;;;;;5080862;28;20080;-79
2023/07/19 04:39:47;;;;;;;4.43;2.22;;;;;;;;;;5060638;28;20060;-79
2023/07/19 04:42:14;;;;;;;5.93;2.30;;;;;;;;;;5061361;28;20045;-79
2023/07/19 04:44:41;;;;;;;6.60;2.45;;;;;;;;;;5061984;28;20041;-77
2023/07/19 04:47:09;;;;;;;5.78;2.22;;;;;;;;;;5059191;28;20055;-79
2023/07/19 04:49:36;;;;;;;6.03;2.50;;;;;;;;;;5061208;28;20040;-78
2023/07/19 04:52:03;;;;;;;7.32;2.33;;;;;;;;;;5062325;28;20056;-78
2023/07/19 04:54:29;;;;;;;5.47;2.38;;;;;;;;;;5060521;28;20071;-79
2023/07/19 04:56:56;;;;;;;5.93;2.50;;;;;;;;;;5061246;28;20045;-78
2023/07/19 04:59:23;;;;;;;5.05;2.20;;;;;;;;;;5058145;28;20066;-78
2023/07/19 05:01:49;;;;;;;5.57;2.42;;;;;;;;;;5055718;28;20064;-79
2023/07/19 05:04:16;;;;;;;9.32;2.75;;;;;;;;;;5058947;28;20537;-78
2023/07/19 05:06:43;;;;;;;6.88;2.45;;;;;;;;;;5060887;28;20053;-77
2023/07/19 05:09:10;;;;;;;5.85;2.38;;;;;;;;;;5056219;28;20110;-78
2023/07/19 05:11:37;;;;;;;4.88;2.15;;;;;;;;;;5054048;28;20128;-77
2023/07/19 05:14:03;;;;;;;10.48;2.78;;;;;;;;;;5058558;28;20052;-79
2023/07/19 05:16:30;;;;;;;5.63;2.35;;;;;;;;;;5060535;28;20049;-79
2023/07/19 05:18:57;;;;;;;5.90;2.40;;;;;;;;;;5057239;28;20048;-78
2023/07/19 05:21:24;;;;;;;7.10;2.35;;;;;;;;;;5056287;28;20269;-78
2023/07/19 05:23:51;;;;;;;6.68;2.33;;;;;;;;;;5056683;28;20060;-77
2023/07/19 05:26:17;;;;;;;5.55;2.17;;;;;;;;;;5060865;28;20064;-78
2023/07/19 05:28:45;;;;;;;6.05;2.20;;;;;;;;;;5062222;28;20052;-79
2023/07/19 05:31:12;;;;;;;7.80;1.90;;;;;;;;;;5044339;28;20069;-79
2023/07/19 05:33:38;;;;;;;5.97;2.05;;;;;;;;;;5060354;28;20048;-80
2023/07/19 05:36:05;;;;;;;6.45;2.08;;;;;;;;;;5060888;28;20044;-78
2023/07/19 05:38:32;;;;;;;5.43;2.10;;;;;;;;;;5070371;28;20061;-78
2023/07/19 05:40:59;;;;;;;4.15;2.13;;;;;;;;;;5080590;28;20198;-78
2023/07/19 05:43:26;;;;;;;6.75;2.35;;;;;;;;;;5079927;28;20041;-80
2023/07/19 05:45:52;;;;;;;7.18;2.30;;;;;;;;;;5080241;28;20371;-80
2023/07/19 05:48:19;;;;;;;6.65;2.40;;;;;;;;;;5081004;28;20108;-79
2023/07/19 05:50:46;;;;;;;6.70;2.20;;;;;;;;;;5080724;28;20068;-78
2023/07/19 05:53:13;;;;;;;5.00;2.17;;;;;;;;;;5082396;28;20036;-80
2023/07/19 05:55:39;;;;;;;7.13;2.13;;;;;;;;;;5080455;28;20048;-79
2023/07/19 05:58:06;;;;;;;11.05;2.45;;;;;;;;;;5080301;28;20242;-79
2023/07/19 06:00:33;;;;;;;8.45;2.25;;;;;;;;;;5081778;28;20040;-79
2023/07/19 06:02:59;;;;;;;8.15;2.33;;;;;;;;;;5080788;28;20048;-80
2023/07/19 06:05:26;;;;;;;7.00;2.00;;;;;;;;;;5082012;28;20045;-78
2023/07/19 06:07:53;;;;;;;4.80;2.08;;;;;;;;;;5079630;28;20094;-79
2023/07/19 06:10:20;;;;;;;4.80;2.15;;;;;;;;;;5080041;28;20059;-78
2023/07/19 06:12:47;;;;;;;6.47;1.85;;;;;;;;;;5080491;28;20037;-80
2023/07/19 06:15:14;;;;;;;5.00;1.90;;;;;;;;;;5080148;28;20033;-80
2023/07/19 06:17:42;;;;;;;5.60;2.15;;;;;;;;;;5077747;28;20490;-80
2023/07/19 06:20:13;;;;;;;10.10;2.10;;;;;;;;;;5078382;28;20060;-78
2023/07/19 06:22:40;;;;;;;7.20;1.73;;;;;;;;;;5078946;28;20040;-78
2023/07/19 06:25:06;;;;;;;5.20;2.08;;;;;;;;;;5078068;28;20036;-80
2023/07/19 06:27:33;;;;;;;5.13;1.88;;;;;;;;;;5079242;28;20418;-79
2023/07/19 06:30:00;;;;;;;3.60;1.40;;;;;;;;;;5080083;28;20051;-78
2023/07/19 06:32:27;;;;;;;4.18;1.52;;;;;;;;;;5077595;28;20063;-79
2023/07/19 06:34:53;;;;;;;2.47;1.48;;;;;;;;;;5077859;28;20048;-79
2023/07/19 06:37:20;;;;;;;3.00;1.40;;;;;;;;;;5078356;28;20060;-80
2023/07/19 06:39:48;;;;;;;2.88;1.48;;;;;;;;;;5056985;28;20049;-79
2023/07/19 06:42:14;;;;;;;3.92;1.50;;;;;;;;;;5059381;28;20064;-79
2023/07/19 06:44:41;;;;;;;3.45;1.30;;;;;;;;;;5059383;28;20298;-79
2023/07/19 06:47:07;;;;;;;6.15;1.95;;;;;;;;;;5058037;28;20499;-78
2023/07/19 06:49:34;;;;;;;3.97;1.70;;;;;;;;;;5059428;28;20098;-78
2023/07/19 06:52:01;;;;;;;3.72;1.38;;;;;;;;;;5058696;28;20045;-80
2023/07/19 06:54:27;;;;;;;4.18;1.52;;;;;;;;;;5057677;28;20104;-79
2023/07/19 06:56:54;;;;;;;3.55;1.65;;;;;;;;;;5059627;28;20040;-77
2023/07/19 06:59:21;;;;;;;4.03;2.10;;;;;;;;;;5059476;28;20049;-78
2023/07/19 07:01:47;;;;;;;3.42;1.67;;;;;;;;;;5061134;28;20049;-79
2023/07/19 07:04:14;;;;;;;3.45;1.65;;;;;;;;;;5062156;28;20048;-80
2023/07/19 07:06:40;;;;;;;3.08;1.60;;;;;;;;;;5061579;28;20108;-79
2023/07/19 07:09:07;;;;;;;4.70;1.33;;;;;;;;;;5056047;28;20053;-80
2023/07/19 07:11:34;;;;;;;2.17;1.40;;;;;;;;;;5057877;28;20049;-80
2023/07/19 07:14:00;;;;;;;3.33;1.70;;;;;;;;;;5057014;28;20499;-78
2023/07/19 07:16:28;;;;;;;2.53;1.45;;;;;;;;;;5056331;28;20521;-79
2023/07/19 07:18:57;;;;;;;4.80;1.40;;;;;;;;;;5053995;28;20048;-79
2023/07/19 07:21:24;;;;;;;3.75;1.70;;;;;;;;;;5051517;28;20048;-79
2023/07/19 07:23:50;;;;;;;4.90;1.65;;;;;;;;;;5057807;28;20065;-79
2023/07/19 07:26:20;;;;;;;3.50;1.50;;;;;;;;;;5057319;28;20080;-79
2023/07/19 07:28:46;;;;;;;3.88;1.30;;;;;;;;;;5056041;28;20124;-79
2023/07/19 07:31:13;;;;;;;3.35;1.40;;;;;;;;;;5057765;28;20045;-81
2023/07/19 07:33:40;;;;;;;4.22;1.50;;;;;;;;;;5059442;28;20044;-78
2023/07/19 07:36:07;;;;;;;4.72;1.65;;;;;;;;;;5058123;28;20299;-78
2023/07/19 07:38:33;;;;;;;5.80;1.38;;;;;;;;;;5068407;28;20040;-77
2023/07/19 07:41:01;;;;;;;2.55;1.50;;;;;;;;;;5076910;28;20036;-79
2023/07/19 07:43:29;;;;;;;3.70;1.92;;;;;;;;;;5076451;28;20041;-77
2023/07/19 07:45:55;;;;;;;3.40;1.58;;;;;;;;;;5078157;28;20309;-78
2023/07/19 07:48:22;;;;;;;1.80;1.30;;;;;;;;;;5081953;28;20466;-78
2023/07/19 07:50:51;;;;;;;3.28;1.75;;;;;;;;;;5079626;28;20075;-79
2023/07/19 07:53:18;;;;;;;4.85;1.77;;;;;;;;;;5081067;28;20597;-78
2023/07/19 07:55:45;;;;;;;3.20;1.52;;;;;;;;;;5080126;28;20060;-78
2023/07/19 07:58:12;;;;;;;3.42;1.70;;;;;;;;;;5079029;28;20049;-79
2023/07/19 08:00:39;;;;;;;2.75;1.45;;;;;;;;;;5081481;28;20053;-80
2023/07/19 08:03:08;;;;;;;3.85;1.73;;;;;;;;;;5073182;28;20127;-78
2023/07/19 08:05:35;;;;;;;3.47;1.70;;;;;;;;;;5054040;28;20040;-79
2023/07/19 08:08:03;;;;;;;3.13;1.63;;;;;;;;;;5071631;28;20048;-79
2023/07/19 08:10:30;;;;;;;5.57;1.50;;;;;;;;;;5074913;28;20044;-79
2023/07/19 08:12:59;;;;;;;3.95;1.58;;;;;;;;;;5076472;28;20055;-78
2023/07/19 08:15:26;;;;;;;2.72;1.67;;;;;;;;;;5078020;28;20065;-78
2023/07/19 08:17:53;;;;;;;3.70;1.55;;;;;;;;;;5076532;28;20489;-78
2023/07/19 08:20:19;;;;;;;3.05;1.52;;;;;;;;;;5076297;28;20041;-77
2023/07/19 08:22:47;;;;;;;3.38;1.70;;;;;;;;;;5079110;28;20219;-78
2023/07/19 08:25:16;;;;;;;4.70;2.05;;;;;;;;;;5079031;28;20037;-80
2023/07/19 08:27:56;;;;;;;3.28;1.60;;;;;;;;;;5079570;28;20498;-80
2023/07/19 08:30:23;;;;;;;4.65;1.45;;;;;;;;;;5076957;28;20044;-78
2023/07/19 08:32:50;;;;;;;6.55;1.60;;;;;;;;;;5079651;28;20083;-78
2023/07/19 08:35:19;;;;;;;2.63;1.60;;;;;;;;;;5082000;28;20127;-79
2023/07/19 08:37:48;;;;;;;3.63;1.70;;;;;;;;;;5076205;28;20057;-79
2023/07/19 08:40:16;;;;;;;5.32;1.55;;;;;;;;;;5059655;28;20056;-79
2023/07/19 08:42:43;;;;;;;2.70;1.55;;;;;;;;;;5057410;28;20049;-78
2023/07/19 08:45:11;;;;;;;4.75;1.60;;;;;;;;;;5057553;28;20049;-79
2023/07/19 08:47:39;;;;;;;4.40;1.60;;;;;;;;;;5056761;28;20060;-78
2023/07/19 08:50:07;;;;;;;3.85;1.50;;;;;;;;;;5057865;28;20048;-78
2023/07/19 08:52:34;;;;;;;3.65;1.90;;;;;;;;;;5058889;28;20045;-78
2023/07/19 08:55:01;;;;;;;4.97;1.83;;;;;;;;;;5056462;28;20476;-78
2023/07/19 08:57:28;;;;;;;2.60;1.52;;;;;;;;;;5057777;28;20104;-77
2023/07/19 08:59:55;;;;;;;4.20;1.58;;;;;;;;;;5056909;28;20047;-78
2023/07/19 09:02:21;;;;;;;4.20;1.50;;;;;;;;;;5058213;28;20099;-78
2023/07/19 09:05:04;;;;;;;4.20;1.60;;;;;;;;;;5057176;28;20052;-79
2023/07/19 09:07:31;;;;;;;3.47;1.52;;;;;;;;;;5058439;28;20053;-80
2023/07/19 09:09:58;;;;;;;5.13;1.70;;;;;;;;;;5056826;28;20572;-80
2023/07/19 09:12:25;;;;;;;7.03;1.75;;;;;;;;;;5057435;28;20061;-80
2023/07/19 09:14:51;;;;;;;4.38;1.73;;;;;;;;;;5058790;28;20064;-81
2023/07/19 09:17:20;;;;;;;4.53;1.65;;;;;;;;;;5060468;28;20104;-78
2023/07/19 09:19:47;;;;;;;4.35;1.80;;;;;;;;;;5058505;28;20049;-80
2023/07/19 09:22:16;;;;;;;4.20;1.60;;;;;;;;;;5061082;28;20056;-79
2023/07/19 09:24:52;;;;;;;4.95;1.65;;;;;;;;;;5058213;28;20049;-77
2023/07/19 09:27:23;;;;;;;2.92;1.58;;;;;;;;;;5058422;28;20087;-79
2023/07/19 09:29:50;;;;;;;2.63;1.60;;;;;;;;;;5057265;28;20068;-78
2023/07/19 09:32:17;;;;;;;5.35;1.70;;;;;;;;;;5056091;28;20503;-79
2023/07/19 09:34:44;;;;;;;4.50;1.63;;;;;;;;;;5058962;28;20312;-79
2023/07/19 09:37:11;;;;;;;2.90;1.63;;;;;;;;;;5063765;28;20446;-81
2023/07/19 09:39:40;;;;;;;3.60;1.80;;;;;;;;;;5078956;28;20071;-80
2023/07/19 09:42:10;;;;;;;4.38;1.90;;;;;;;;;;5078986;28;20044;-81
2023/07/19 09:44:37;;;;;;;3.25;1.77;;;;;;;;;;5078756;28;20047;-79
2023/07/19 09:47:04;;;;;;;3.75;1.65;;;;;;;;;;5076920;28;20044;-81
2023/07/19 09:49:50;;;;;;;5.50;1.65;;;;;;;;;;5075638;28;20083;-79
2023/07/19 09:52:17;;;;;;;4.35;1.70;;;;;;;;;;5080435;28;20040;-80
2023/07/19 09:54:44;;;;;;;2.53;1.50;;;;;;;;;;5081726;28;20045;-79
2023/07/19 09:57:11;;;;;;;3.63;1.50;;;;;;;;;;5086849;28;20040;-79
2023/07/19 09:59:41;;;;;;;4.50;1.85;;;;;;;;;;5079555;28;20046;-79
2023/07/19 10:02:08;;;;;;;3.33;1.90;;;;;;;;;;5076584;28;20052;-79
2023/07/19 10:04:38;;;;;;;4.55;1.70;;;;;;;;;;5076116;28;20127;-80
2023/07/19 10:07:17;;;;;;;2.60;1.70;;;;;;;;;;5075234;28;20074;-78
2023/07/19 10:09:45;;;;;;;4.22;1.80;;;;;;;;;;5075180;28;20055;-78
2023/07/19 10:12:14;;;;;;;2.63;1.85;;;;;;;;;;5074141;28;20080;-79
2023/07/19 10:14:53;;;;;;;4.25;1.80;;;;;;;;;;5077603;28;20052;-80
2023/07/19 10:17:20;;;;;;;3.92;1.73;;;;;;;;;;5078296;28;20153;-79
2023/07/19 10:19:56;;;;;;;4.85;2.00;;;;;;;;;;5077295;28;20099;-79
2023/07/19 10:22:44;;;;;;;3.33;2.00;;;;;;;;;;5079132;28;20078;-80
2023/07/19 10:25:13;;;;;;;4.75;1.63;;;;;;;;;;5078632;28;20048;-79
2023/07/19 10:27:40;;;;;;;3.70;2.00;;;;;;;;;;5080158;28;20131;-78
2023/07/19 10:30:07;;;;;;;4.50;2.00;;;;;;;;;;5076852;28;20067;-79
2023/07/19 10:32:34;;;;;;;5.20;2.03;;;;;;;;;;5076398;28;20052;-77
2023/07/19 10:35:02;;;;;;;3.97;1.77;;;;;;;;;;5078207;28;20056;-79
2023/07/19 10:37:29;;;;;;;3.97;2.10;;;;;;;;;;5082931;28;20040;-78
2023/07/19 10:39:55;;;;;;;3.95;1.80;;;;;;;;;;5060136;28;20041;-79
2023/07/19 10:42:22;;;;;;;5.03;1.88;;;;;;;;;;5054378;28;20049;-79
2023/07/19 10:44:51;;;;;;;3.47;1.73;;;;;;;;;;5054761;28;20044;-78
2023/07/19 10:47:18;;;;;;;4.22;1.80;;;;;;;;;;5053886;28;20063;-79
2023/07/19 10:49:45;;;;;;;3.85;1.67;;;;;;;;;;5054195;28;20083;-78
2023/07/19 10:52:12;;;;;;;2.85;1.48;;;;;;;;;;5055645;28;20041;-79
2023/07/19 10:54:39;;;;;;;4.90;1.90;;;;;;;;;;5053545;28;20215;-79
2023/07/19 10:57:21;;;;;;;3.30;1.73;;;;;;;;;;5056114;28;20041;-78
2023/07/19 10:59:50;;;;;;;5.68;1.73;;;;;;;;;;5053435;28;20049;-78
2023/07/19 11:02:20;;;;;;;3.20;1.90;;;;;;;;;;5055569;28;20056;-79
2023/07/19 11:04:48;;;;;;;3.10;1.80;;;;;;;;;;5054681;28;20088;-79
2023/07/19 11:07:18;;;;;;;2.40;1.60;;;;;;;;;;5056597;28;20037;-79
2023/07/19 11:09:48;;;;;;;3.83;1.92;;;;;;;;;;5053635;28;20108;-78
2023/07/19 11:12:15;;;;;;;4.03;1.90;;;;;;;;;;5054959;28;20128;-79
2023/07/19 11:14:44;;;;;;;5.90;1.63;;;;;;;;;;5056610;28;20041;-79
2023/07/19 11:17:24;;;;;;;6.55;1.92;;;;;;;;;;5057298;28;20045;-80
2023/07/19 11:19:51;;;;;;;3.05;1.65;;;;;;;;;;5058620;28;20037;-80
2023/07/19 11:22:24;;;;;;;3.38;1.80;;;;;;;;;;5063023;28;20048;-76
2023/07/19 11:24:52;;;;;;;3.33;1.88;;;;;;;;;;5061146;28;20040;-80
2023/07/19 11:27:19;;;;;;;3.20;1.95;;;;;;;;;;5062055;28;20045;-79
2023/07/19 11:29:50;;;;;;;5.07;1.73;;;;;;;;;;5060347;28;20045;-79
2023/07/19 11:32:20;;;;;;;4.90;1.90;;;;;;;;;;5060240;28;20574;-79
2023/07/19 11:34:48;;;;;;;2.53;1.55;;;;;;;;;;5060483;28;20505;-78
2023/07/19 11:37:19;;;;;;;3.13;1.65;;;;;;;;;;5059099;28;20136;-78
2023/07/19 11:39:46;;;;;;;2.53;1.75;;;;;;;;;;5076157;28;20044;-77
2023/07/19 11:42:13;;;;;;;2.70;1.73;;;;;;;;;;5077624;28;20142;-77
2023/07/19 11:44:44;;;;;;;6.15;1.73;;;;;;;;;;5076745;28;20044;-79
2023/07/19 11:47:11;;;;;;;3.28;1.73;;;;;;;;;;5076776;28;20295;-80
2023/07/19 11:49:38;;;;;;;3.20;1.70;;;;;;;;;;5079387;28;20044;-80
2023/07/19 11:52:04;;;;;;;2.92;1.70;;;;;;;;;;5079712;28;20320;-79
2023/07/19 11:54:31;;;;;;;6.63;2.15;;;;;;;;;;5076803;28;20095;-78
2023/07/19 11:56:58;;;;;;;3.10;1.67;;;;;;;;;;5077673;28;20040;-79
2023/07/19 11:59:25;;;;;;;3.95;1.83;;;;;;;;;;5077102;28;20392;-79
2023/07/19 12:01:52;;;;;;;3.90;1.60;;;;;;;;;;5079681;28;20048;-78
2023/07/19 12:04:18;;;;;;;4.63;1.88;;;;;;;;;;5060064;28;20045;-77
2023/07/19 12:06:45;;;;;;;5.97;1.90;;;;;;;;;;5058190;28;20041;-80
2023/07/19 12:09:13;;;;;;;3.78;1.80;;;;;;;;;;5056157;28;20490;-78
2023/07/19 12:11:41;;;;;;;3.10;1.73;;;;;;;;;;5060531;28;20045;-78
2023/07/19 12:14:08;;;;;;;2.65;1.80;;;;;;;;;;5066393;28;20067;-78
2023/07/19 12:16:37;;;;;;;3.95;2.03;;;;;;;;;;5067170;28;20036;-78
2023/07/19 12:19:03;;;;;;;5.63;1.88;;;;;;;;;;5055396;28;20091;-79
2023/07/19 12:21:30;;;;;;;3.80;1.67;;;;;;;;;;5054489;28;20126;-79
2023/07/19 12:23:57;;;;;;;3.92;2.10;;;;;;;;;;5053341;28;20044;-79
2023/07/19 12:26:26;;;;;;;4.10;1.95;;;;;;;;;;5037565;28;20463;-79
2023/07/19 12:28:55;;;;;;;4.15;1.73;;;;;;;;;;5057094;28;20574;-79
2023/07/19 12:31:22;;;;;;;4.35;1.63;;;;;;;;;;5054430;28;20092;-82
2023/07/19 12:33:49;;;;;;;4.00;1.80;;;;;;;;;;5055577;28;20052;-78
2023/07/19 12:36:16;;;;;;;2.83;1.48;;;;;;;;;;5057445;28;20049;-80
2023/07/19 12:38:43;;;;;;;5.78;1.80;;;;;;;;;;5072730;28;20063;-77
2023/07/19 12:41:09;;;;;;;4.70;1.80;;;;;;;;;;5086713;28;20044;-78
2023/07/19 12:43:36;;;;;;;3.28;1.85;;;;;;;;;;5077785;28;20079;-79
2023/07/19 12:46:03;;;;;;;4.32;1.70;;;;;;;;;;5075418;28;20105;-78
2023/07/19 12:48:30;;;;;;;2.70;1.55;;;;;;;;;;5076961;28;20054;-78
2023/07/19 12:50:56;;;;;;;3.00;1.73;;;;;;;;;;5077883;28;20048;-78
2023/07/19 12:53:23;;;;;;;2.92;1.73;;;;;;;;;;5077483;28;20052;-79
2023/07/19 12:55:50;;;;;;;2.58;1.60;;;;;;;;;;5075550;28;20045;-79
2023/07/19 12:58:17;;;;;;;3.40;1.52;;;;;;;;;;5077030;28;20467;-77
2023/07/19 13:00:43;;;;;;;2.50;1.40;;;;;;;;;;5076689;28;20147;-79
2023/07/19 13:03:10;;;;;;;2.75;1.60;;;;;;;;;;5075338;28;20047;-78
2023/07/19 13:05:37;;;;;;;4.47;1.80;;;;;;;;;;5076934;28;20075;-78
2023/07/19 13:08:04;;;;;;;4.38;1.58;;;;;;;;;;5077143;28;20048;-77
2023/07/19 13:10:31;;;;;;;2.45;1.55;;;;;;;;;;5073877;28;20056;-78
2023/07/19 13:12:58;;;;;;;2.88;1.50;;;;;;;;;;5075213;28;20040;-79
2023/07/19 13:15:25;;;;;;;2.50;1.50;;;;;;;;;;5074969;28;20513;-78
2023/07/19 13:17:53;;;;;;;4.47;1.40;;;;;;;;;;5075085;28;20040;-78
2023/07/19 13:20:20;;;;;;;4.35;1.70;;;;;;;;;;5076106;28;20273;-78
2023/07/19 13:22:47;;;;;;;3.38;1.70;;;;;;;;;;5076848;28;20036;-78
2023/07/19 13:25:14;;;;;;;4.78;1.73;;;;;;;;;;5075143;28;20545;-78
2023/07/19 13:27:41;;;;;;;4.35;1.75;;;;;;;;;;5058233;28;20068;-78
2023/07/19 13:30:10;;;;;;;3.15;1.60;;;;;;;;;;5075862;28;20498;-79
2023/07/19 13:32:37;;;;;;;4.57;2.00;;;;;;;;;;5076607;28;20040;-77
2023/07/19 13:35:04;;;;;;;4.00;1.92;;;;;;;;;;5077027;28;20045;-79
2023/07/19 13:37:38;;;;;;;3.92;1.65;;;;;;;;;;5074356;28;20056;-77
2023/07/19 13:40:07;;;;;;;3.97;1.58;;;;;;;;;;5054570;28;20071;-79
2023/07/19 13:42:37;;;;;;;4.13;1.65;;;;;;;;;;5055856;28;20044;-77
2023/07/19 13:45:05;;;;;;;6.00;1.58;;;;;;;;;;5056255;28;20454;-76
2023/07/19 13:47:34;;;;;;;3.95;1.80;;;;;;;;;;5056121;28;20045;-79
2023/07/19 13:50:02;;;;;;;4.60;1.83;;;;;;;;;;5057654;28;20044;-78
2023/07/19 13:52:28;;;;;;;5.15;1.92;;;;;;;;;;5056676;28;20045;-78
2023/07/19 13:54:55;;;;;;;6.30;1.40;;;;;;;;;;5055507;28;20119;-79
2023/07/19 13:57:23;;;;;;;5.53;1.95;;;;;;;;;;5056124;28;20071;-78
2023/07/19 13:59:50;;;;;;;3.55;1.73;;;;;;;;;;5053612;28;20047;-78
2023/07/19 14:02:16;;;;;;;2.58;1.67;;;;;;;;;;5055098;28;20595;-78
2023/07/19 14:04:52;;;;;;;4.80;2.00;;;;;;;;;;5055918;28;20209;-79
2023/07/19 14:07:22;;;;;;;7.55;1.60;;;;;;;;;;5052936;28;20564;-78
2023/07/19 14:09:49;;;;;;;3.17;1.80;;;;;;;;;;5044122;28;20064;-78
2023/07/19 14:12:18;;;;;;;3.90;1.83;;;;;;;;;;5055796;28;20136;-78
2023/07/19 14:14:44;;;;;;;3.42;1.90;;;;;;;;;;5053322;28;20060;-78
2023/07/19 14:17:11;;;;;;;12.00;1.90;;;;;;;;;;5055732;28;20072;-79
2023/07/19 14:19:38;;;;;;;4.38;1.90;;;;;;;;;;5056296;28;20056;-79
2023/07/19 14:22:05;;;;;;;4.32;1.60;;;;;;;;;;5057755;28;20137;-78
2023/07/19 14:24:32;;;;;;;6.75;2.17;;;;;;;;;;5055071;28;20105;-78
2023/07/19 14:26:58;;;;;;;3.28;1.80;;;;;;;;;;5054866;28;20049;-79
2023/07/19 14:29:25;;;;;;;3.25;1.40;;;;;;;;;;5055667;28;20057;-79
2023/07/19 14:31:52;;;;;;;3.40;1.60;;;;;;;;;;5055031;28;20048;-78
2023/07/19 14:34:18;;;;;;;4.85;1.50;;;;;;;;;;5054016;28;20071;-78
2023/07/19 14:36:51;;;;;;;5.55;1.63;;;;;;;;;;5039071;28;20313;-79
2023/07/19 14:39:20;;;;;;;2.80;1.30;;;;;;;;;;5074855;28;20083;-77
2023/07/19 14:41:51;;;;;;;3.00;1.10;;;;;;;;;;5084779;28;20045;-79
2023/07/19 14:44:22;;;;;;;7.32;1.10;;;;;;;;;;5075713;28;20053;-78
2023/07/19 14:46:48;;;;;;;5.28;1.40;;;;;;;;;;5073966;28;20051;-78